Time;durP1;ratioP1;P1;durP2;ratioP2;P2;SDS_P1;SDS_P2;PMS_P1;PMS_P2;Temp;Humidity;BMP_temperature;BMP_pressure;BME280_temperature;BME280_humidity;BME280_pressure;Samples;Min_cycle;Max_cycle;Signal;HPM_P1;HPM_P2
2022/01/27 00:00:48;;;;;;;;;;;;;;;7.90;63.62;101583.88;5014026;28;102703;-48
2022/01/27 00:03:29;;;;;;;;;;;;;;;7.89;63.70;101590.34;5009155;28;103616;-49
2022/01/27 00:06:00;;;;;;;;;;;;;;;7.89;63.92;101593.06;5008106;28;103859;-48
2022/01/27 00:11:14;;;;;;;;;;;;;;;7.89;63.98;101593.06;5005389;28;102301;-48
2022/01/27 00:13:57;;;;;;;;;;;;;;;7.89;63.61;101598.47;5007847;28;102148;-49
2022/01/27 00:16:27;;;;;;;;;;;;;;;7.89;64.50;101609.31;5007111;28;108032;-48
2022/01/27 00:18:54;;;;;;;;;;;;;;;7.90;63.58;101600.16;4997186;28;102502;-49
2022/01/27 00:21:21;;;;;;;;;;;;;;;7.89;64.50;101603.91;5013145;28;102168;-48
2022/01/27 00:23:48;;;;;;;;;;;;;;;7.89;63.46;101603.91;5015133;28;102833;-49
2022/01/27 00:26:16;;;;;;;;;;;;;;;7.89;64.25;101593.06;5014589;28;103915;-50
2022/01/27 00:28:44;;;;;;;;;;;;;;;7.88;63.46;101594.13;5019018;28;102254;-49
2022/01/27 00:31:10;;;;;;;;;;;;;;;7.90;64.55;101591.19;5007352;28;102244;-49
2022/01/27 00:33:36;;;;;;;;;;;;;;;7.89;64.12;101590.34;5014269;28;102256;-48
2022/01/27 00:36:03;;;;;;;;;;;;;;;7.90;63.59;101583.88;5024211;27;104067;-49
2022/01/27 00:38:30;;;;;;;;;;;;;;;7.89;63.98;101576.78;5013195;27;103497;-49
2022/01/27 00:40:57;;;;;;;;;;;;;;;7.89;63.69;101587.63;5014905;28;102437;-51
2022/01/27 00:43:23;;;;;;;;;;;;;;;7.89;64.00;101592.22;5017269;28;102158;-48
2022/01/27 00:45:50;;;;;;;;;;;;;;;7.89;63.63;101590.34;5017511;27;103859;-49
2022/01/27 00:48:17;;;;;;;;;;;;;;;7.89;64.10;101593.06;5015787;27;102389;-48
2022/01/27 00:50:46;;;;;;;;;;;;;;;7.88;63.58;101588.69;5008184;27;102158;-48
2022/01/27 00:53:42;;;;;;;;;;;;;;;7.89;64.34;101592.22;5013538;27;102231;-49
2022/01/27 00:56:17;;;;;;;;;;;;;;;7.88;63.99;101591.41;5012116;27;104087;-48
2022/01/27 00:58:56;;;;;;;;;;;;;;;7.89;63.13;101590.34;5023562;27;105390;-48
2022/01/27 01:01:27;;;;;;;;;;;;;;;7.89;63.29;101582.22;5014884;27;102266;-49
2022/01/27 01:03:58;;;;;;;;;;;;;;;7.89;63.98;101584.91;5019239;27;102207;-49
2022/01/27 01:06:43;;;;;;;;;;;;;;;7.89;64.01;101579.50;5019181;27;104683;-48
2022/01/27 01:10:05;;;;;;;;;;;;;;;7.88;64.16;101575.16;5025876;27;102414;-49
2022/01/27 01:14:41;;;;;;;;;;;;;;;7.89;63.21;101571.38;5014152;28;102165;-51
2022/01/27 01:33:03;;;;;;;;;;;;;;;7.89;63.62;101584.91;5014614;27;102524;-48
2022/01/27 01:35:47;;;;;;;;;;;;;;;7.88;63.60;101588.69;5015825;28;102726;-49
2022/01/27 01:38:13;;;;;;;;;;;;;;;7.87;63.43;101587.06;5016162;27;103947;-49
2022/01/27 01:40:39;;;;;;;;;;;;;;;7.88;64.40;101590.59;5015434;27;102299;-49
2022/01/27 01:43:07;;;;;;;;;;;;;;;7.87;64.18;101583.53;5012699;28;102290;-50
2022/01/27 01:45:33;;;;;;;;;;;;;;;7.88;63.72;101580.56;5023488;28;102531;-49
2022/01/27 01:47:59;;;;;;;;;;;;;;;7.87;64.23;101584.34;5016270;27;103909;-50
2022/01/27 01:50:25;;;;;;;;;;;;;;;7.88;63.88;101583.28;5037769;27;102394;-49
2022/01/27 01:52:51;;;;;;;;;;;;;;;7.89;63.94;101578.69;5012314;28;102016;-49
2022/01/27 01:55:18;;;;;;;;;;;;;;;7.88;63.69;101586.00;5015357;27;102544;-49
2022/01/27 01:57:44;;;;;;;;;;;;;;;7.88;64.56;101569.72;5013489;28;108456;-50
2022/01/27 02:00:13;;;;;;;;;;;;;;;7.89;63.67;101570.56;5015435;28;102300;-50
2022/01/27 02:02:39;;;;;;;;;;;;;;;7.88;63.56;101564.31;5014193;27;102363;-49
2022/01/27 02:05:06;;;;;;;;;;;;;;;7.89;63.46;101575.97;5017690;27;102161;-49
2022/01/27 02:10:31;;;;;;;;;;;;;;;7.89;64.56;101575.97;5017010;27;102316;-48
2022/01/27 02:18:29;;;;;;;;;;;;;;;7.88;63.84;101569.72;5008056;27;103992;-49
2022/01/27 02:20:56;;;;;;;;;;;;;;;7.88;63.97;101575.16;5017277;27;102535;-49
2022/01/27 02:23:22;;;;;;;;;;;;;;;7.88;64.22;101575.16;5012270;28;102425;-51
2022/01/27 02:25:49;;;;;;;;;;;;;;;7.88;63.73;101552.66;5008101;28;102710;-53
2022/01/27 02:28:15;;;;;;;;;;;;;;;7.88;64.00;101561.59;5011500;28;103842;-49
2022/01/27 02:30:41;;;;;;;;;;;;;;;7.88;63.45;101558.88;5008213;28;102339;-49
2022/01/27 02:33:07;;;;;;;;;;;;;;;7.88;64.05;101553.47;5013302;28;102445;-50
2022/01/27 02:35:34;;;;;;;;;;;;;;;7.88;64.08;101553.47;5016083;28;102971;-49
2022/01/27 02:38:01;;;;;;;;;;;;;;;7.89;64.07;101551.56;5014594;27;104008;-49
2022/01/27 02:40:34;;;;;;;;;;;;;;;7.88;64.14;101558.88;5006568;28;103653;-51
2022/01/27 02:43:00;;;;;;;;;;;;;;;7.89;64.00;101560.53;4998916;28;102191;-51
2022/01/27 02:45:27;;;;;;;;;;;;;;;7.88;64.05;101558.88;5014775;28;102707;-49
2022/01/27 02:47:53;;;;;;;;;;;;;;;7.89;63.62;101567.84;5006165;27;103872;-48
2022/01/27 02:50:21;;;;;;;;;;;;;;;7.89;64.11;101565.94;5015156;27;102349;-51
2022/01/27 02:52:47;;;;;;;;;;;;;;;7.89;64.55;101557.81;5019372;27;102356;-49
2022/01/27 02:55:15;;;;;;;;;;;;;;;7.88;63.62;101553.47;5019271;28;102272;-50
2022/01/27 02:57:41;;;;;;;;;;;;;;;7.89;64.09;101560.53;5017947;28;103990;-49
2022/01/27 03:00:07;;;;;;;;;;;;;;;7.89;63.31;101560.53;5014886;28;102233;-49
2022/01/27 03:02:35;;;;;;;;;;;;;;;7.89;63.74;101565.94;5014795;28;102570;-51
2022/01/27 03:05:02;;;;;;;;;;;;;;;7.90;64.20;101573.03;5021786;28;102434;-51
2022/01/27 03:07:28;;;;;;;;;;;;;;;7.90;63.78;101572.22;5014173;28;104007;-49
2022/01/27 03:09:55;;;;;;;;;;;;;;;7.89;63.42;101565.94;5016615;27;102768;-51
2022/01/27 03:12:25;;;;;;;;;;;;;;;7.88;63.70;101569.72;5015039;28;102283;-49
2022/01/27 03:14:51;;;;;;;;;;;;;;;7.89;64.63;101576.78;5020071;28;102832;-51
2022/01/27 03:17:17;;;;;;;;;;;;;;;7.89;63.74;101579.50;5003760;28;106277;-49
2022/01/27 03:19:43;;;;;;;;;;;;;;;7.90;64.73;101580.34;5008955;28;102303;-49
2022/01/27 03:22:10;;;;;;;;;;;;;;;7.89;64.30;101576.78;5000635;28;102793;-49
2022/01/27 03:24:37;;;;;;;;;;;;;;;7.89;63.74;101586.81;5014622;28;102147;-49
2022/01/27 03:27:06;;;;;;;;;;;;;;;7.88;64.32;101580.56;5014144;27;104123;-49
2022/01/27 03:29:34;;;;;;;;;;;;;;;7.89;64.00;101582.22;5013360;28;102291;-51
2022/01/27 03:32:00;;;;;;;;;;;;;;;7.88;64.11;101583.28;5030185;27;101916;-49
2022/01/27 03:34:27;;;;;;;;;;;;;;;7.89;63.90;101586.81;5015829;28;102380;-50
2022/01/27 03:36:53;;;;;;;;;;;;;;;7.88;63.76;101588.69;5028914;28;104691;-48
2022/01/27 03:39:21;;;;;;;;;;;;;;;7.88;64.17;101596.84;5010524;27;104218;-49
2022/01/27 03:41:53;;;;;;;;;;;;;;;7.88;64.45;101593.28;5025303;28;102151;-49
2022/01/27 03:44:20;;;;;;;;;;;;;;;7.88;63.59;101599.53;5015236;28;102035;-51
2022/01/27 03:46:48;;;;;;;;;;;;;;;7.89;63.72;101606.59;5001450;28;104044;-51
2022/01/27 03:49:14;;;;;;;;;;;;;;;7.88;63.67;101613.09;5009755;28;102469;-48
2022/01/27 03:51:41;;;;;;;;;;;;;;;7.88;63.70;101613.09;5028076;27;102346;-49
2022/01/27 03:54:07;;;;;;;;;;;;;;;7.89;64.53;101622.88;5017620;27;102875;-49
2022/01/27 03:56:33;;;;;;;;;;;;;;;7.88;63.25;101623.94;5013715;28;104180;-52
2022/01/27 03:58:59;;;;;;;;;;;;;;;7.88;64.38;101632.06;5013210;28;102431;-51
2022/01/27 04:01:26;;;;;;;;;;;;;;;7.88;63.80;101626.63;5010420;28;102282;-49
2022/01/27 04:03:56;;;;;;;;;;;;;;;7.88;64.31;101628.53;5022425;27;102311;-49
2022/01/27 04:06:31;;;;;;;;;;;;;;;7.87;63.77;101622.28;5010882;27;103841;-49
2022/01/27 04:08:58;;;;;;;;;;;;;;;7.87;63.81;101633.13;5013593;28;102199;-48
2022/01/27 04:11:24;;;;;;;;;;;;;;;7.87;64.13;101633.13;5014954;27;102361;-48
2022/01/27 04:13:50;;;;;;;;;;;;;;;7.88;64.48;101629.34;5014159;28;102222;-49
2022/01/27 04:16:16;;;;;;;;;;;;;;;7.87;63.55;101625.00;5018152;27;103912;-49
2022/01/27 04:18:42;;;;;;;;;;;;;;;7.87;64.18;101622.28;5013157;28;102336;-50
2022/01/27 04:21:09;;;;;;;;;;;;;;;7.87;64.09;101622.28;5016549;27;102299;-50
2022/01/27 04:23:36;;;;;;;;;;;;;;;7.87;63.62;101627.72;5005313;28;102409;-48
2022/01/27 04:26:04;;;;;;;;;;;;;;;7.88;64.32;101631.25;5016369;28;103909;-49
2022/01/27 04:28:32;;;;;;;;;;;;;;;7.86;63.75;101620.66;5002986;28;102128;-48
2022/01/27 04:31:02;;;;;;;;;;;;;;;7.87;64.20;101630.41;5016827;27;101971;-51
2022/01/27 04:33:31;;;;;;;;;;;;;;;7.86;63.72;101631.47;5018704;27;102320;-49
2022/01/27 04:36:00;;;;;;;;;;;;;;;7.85;64.36;101640.66;5018047;27;103732;-49
2022/01/27 04:46:29;;;;;;;;;;;;;;;7.87;64.08;101668.38;5016632;27;103877;-49
2022/01/27 04:49:00;;;;;;;;;;;;;;;7.85;63.90;101662.34;5011784;27;103027;-48
2022/01/27 04:51:27;;;;;;;;;;;;;;;7.86;64.35;101664.00;5020518;27;102151;-48
2022/01/27 04:56:25;;;;;;;;;;;;;;;7.86;63.78;101666.72;5035252;27;103978;-48
2022/01/27 04:58:56;;;;;;;;;;;;;;;7.85;64.47;101662.34;5015416;28;102061;-49
2022/01/27 05:01:30;;;;;;;;;;;;;;;7.85;63.37;101656.91;5011519;28;102240;-50
2022/01/27 05:04:08;;;;;;;;;;;;;;;7.85;64.31;101667.75;5020295;28;102743;-48
2022/01/27 05:06:34;;;;;;;;;;;;;;;7.86;63.38;101671.28;5008684;28;104189;-48
2022/01/27 05:09:01;;;;;;;;;;;;;;;7.85;64.34;101673.16;5014245;28;102511;-48
2022/01/27 05:11:35;;;;;;;;;;;;;;;7.85;64.28;101670.47;5013384;28;102131;-51
2022/01/27 05:14:12;;;;;;;;;;;;;;;7.85;64.14;101677.75;5017804;28;102004;-49
2022/01/27 05:16:38;;;;;;;;;;;;;;;7.85;64.48;101678.59;5016433;27;103928;-49
2022/01/27 05:19:04;;;;;;;;;;;;;;;7.84;64.30;101687.78;5016476;27;103469;-49
2022/01/27 05:21:32;;;;;;;;;;;;;;;7.84;63.97;101681.53;5013680;28;102177;-48
2022/01/27 05:23:59;;;;;;;;;;;;;;;7.84;63.64;101684.25;5019462;27;102352;-48
2022/01/27 05:26:26;;;;;;;;;;;;;;;7.84;64.20;101692.38;5009787;28;103964;-48
2022/01/27 05:28:52;;;;;;;;;;;;;;;7.85;64.59;101683.19;5016426;27;102168;-49
2022/01/27 05:31:19;;;;;;;;;;;;;;;7.84;63.78;101685.06;5009522;28;102202;-48
2022/01/27 05:33:44;;;;;;;;;;;;;;;7.84;64.03;101693.22;5018587;28;102163;-49
2022/01/27 05:36:10;;;;;;;;;;;;;;;7.84;63.45;101693.22;5021081;27;103844;-50
2022/01/27 05:38:37;;;;;;;;;;;;;;;7.85;64.37;101699.44;5021351;27;102541;-49
2022/01/27 05:41:04;;;;;;;;;;;;;;;7.84;63.53;101695.09;5016359;28;102392;-49
2022/01/27 05:43:31;;;;;;;;;;;;;;;7.85;63.84;101704.88;5017228;27;102566;-49
2022/01/27 05:45:57;;;;;;;;;;;;;;;7.84;63.76;101705.94;5009002;27;103865;-49
2022/01/27 05:48:24;;;;;;;;;;;;;;;7.84;63.83;101703.22;5010688;28;103939;-48
2022/01/27 05:50:50;;;;;;;;;;;;;;;7.83;64.62;101705.13;5009961;27;102097;-51
2022/01/27 05:53:16;;;;;;;;;;;;;;;7.85;64.22;101702.97;5011257;28;102683;-49
2022/01/27 05:55:42;;;;;;;;;;;;;;;7.84;64.10;101698.63;5007937;27;103850;-49
2022/01/27 05:58:08;;;;;;;;;;;;;;;7.85;64.14;101704.88;5013613;28;103728;-48
2022/01/27 06:00:36;;;;;;;;;;;;;;;7.85;64.28;101700.28;5009177;27;103341;-50
2022/01/27 06:03:02;;;;;;;;;;;;;;;7.84;63.97;101693.22;5012720;28;102636;-48
2022/01/27 06:05:28;;;;;;;;;;;;;;;7.86;63.77;101695.69;5011614;28;104082;-49
2022/01/27 06:07:54;;;;;;;;;;;;;;;7.85;64.21;101700.28;5015822;28;102154;-48
2022/01/27 06:10:20;;;;;;;;;;;;;;;7.85;63.83;101711.13;5019870;28;102167;-49
2022/01/27 06:12:47;;;;;;;;;;;;;;;7.86;64.27;101703.81;5016166;27;102510;-49
2022/01/27 06:15:14;;;;;;;;;;;;;;;7.85;64.08;101702.97;5014640;27;103835;-50
2022/01/27 06:17:41;;;;;;;;;;;;;;;7.84;63.97;101693.22;5010831;28;102413;-49
2022/01/27 06:20:08;;;;;;;;;;;;;;;7.85;64.78;101694.84;5011856;28;102577;-48
2022/01/27 06:22:34;;;;;;;;;;;;;;;7.86;63.77;101690.25;5017702;28;104311;-49
2022/01/27 06:25:00;;;;;;;;;;;;;;;7.85;63.45;101692.16;5011942;28;102622;-49
2022/01/27 06:27:26;;;;;;;;;;;;;;;7.87;63.71;101687.34;5011423;28;102245;-51
2022/01/27 06:29:52;;;;;;;;;;;;;;;7.87;63.71;101692.75;5017583;27;102049;-49
2022/01/27 06:32:18;;;;;;;;;;;;;;;7.88;63.72;101699.81;5017812;27;102186;-49
2022/01/27 06:34:46;;;;;;;;;;;;;;;7.88;64.60;101694.41;5017494;27;103902;-48
2022/01/27 06:37:12;;;;;;;;;;;;;;;7.89;64.66;101695.22;5016389;28;102243;-48
2022/01/27 06:39:38;;;;;;;;;;;;;;;7.90;63.44;101696.91;5022728;28;102195;-49
2022/01/27 06:42:07;;;;;;;;;;;;;;;7.89;63.79;101701.47;5006612;28;102503;-48
2022/01/27 06:44:33;;;;;;;;;;;;;;;7.90;64.65;101708.56;5002472;28;103859;-49
2022/01/27 06:46:59;;;;;;;;;;;;;;;7.90;64.14;101703.13;5006476;27;102618;-49
2022/01/27 06:49:25;;;;;;;;;;;;;;;7.90;64.79;101695.00;5005919;28;102824;-49
2022/01/27 06:51:52;;;;;;;;;;;;;;;7.90;63.96;101703.13;5009085;28;102755;-48
2022/01/27 06:54:18;;;;;;;;;;;;;;;7.91;63.42;101712.91;4999824;27;103711;-49
2022/01/27 06:56:45;;;;;;;;;;;;;;;7.91;63.87;101712.91;5002939;27;103379;-49
2022/01/27 06:59:11;;;;;;;;;;;;;;;7.91;63.93;101710.22;5006959;27;103388;-48
2022/01/27 07:01:39;;;;;;;;;;;;;;;7.92;64.53;101711.03;5000040;28;102785;-49
2022/01/27 07:04:05;;;;;;;;;;;;;;;7.92;63.48;101717.28;5013939;27;103935;-49
2022/01/27 07:06:33;;;;;;;;;;;;;;;7.91;63.33;101712.91;5000065;28;103028;-49
2022/01/27 07:09:00;;;;;;;;;;;;;;;7.91;64.60;101703.97;5000966;28;103549;-49
2022/01/27 07:11:27;;;;;;;;;;;;;;;7.92;64.31;101695.59;5005745;28;102238;-50
2022/01/27 07:13:53;;;;;;;;;;;;;;;7.93;64.16;101697.25;5008477;28;104000;-49
2022/01/27 07:16:19;;;;;;;;;;;;;;;7.92;63.99;101700.19;5002649;28;103989;-50
2022/01/27 07:18:45;;;;;;;;;;;;;;;7.93;64.00;101704.53;5010390;28;102305;-50
2022/01/27 07:21:11;;;;;;;;;;;;;;;7.92;64.27;101698.31;5008217;28;102312;-49
2022/01/27 07:23:37;;;;;;;;;;;;;;;7.92;64.78;101695.59;5007163;28;103893;-51
2022/01/27 07:26:05;;;;;;;;;;;;;;;7.93;64.26;101701.84;5002330;28;102792;-49
2022/01/27 07:28:31;;;;;;;;;;;;;;;7.93;64.06;101691.84;5006621;28;103965;-48
2022/01/27 07:30:58;;;;;;;;;;;;;;;7.89;62.71;101696.03;5002894;27;102899;-49
2022/01/27 07:33:24;;;;;;;;;;;;;;;7.76;61.73;101698.94;5000742;28;103681;-52
2022/01/27 07:35:50;;;;;;;;;;;;;;;7.65;59.21;101702.44;5006335;28;103067;-48
2022/01/27 07:38:16;;;;;;;;;;;;;;;7.57;59.35;101697.31;5009808;27;102198;-50
2022/01/27 07:40:42;;;;;;;;;;;;;;;7.52;59.07;101697.16;5001676;28;102432;-49
2022/01/27 07:43:10;;;;;;;;;;;;;;;7.45;58.33;101706.19;5003978;27;104030;-49
2022/01/27 07:45:37;;;;;;;;;;;;;;;7.34;57.80;101706.13;5013554;28;102102;-49
2022/01/27 07:48:03;;;;;;;;;;;;;;;7.26;57.27;101707.25;5008386;27;102414;-49
2022/01/27 07:50:30;;;;;;;;;;;;;;;7.17;56.97;101703.19;5004731;28;102520;-49
2022/01/27 07:52:56;;;;;;;;;;;;;;;7.12;57.38;101706.56;5003716;28;104128;-49
2022/01/27 07:55:22;;;;;;;;;;;;;;;7.07;57.06;101697.44;5002708;28;102608;-48
2022/01/27 07:57:49;;;;;;;;;;;;;;;6.98;55.75;101705.03;5008909;28;103086;-49
2022/01/27 08:00:16;;;;;;;;;;;;;;;6.88;55.61;101694.72;5004644;28;102325;-49
2022/01/27 08:02:45;;;;;;;;;;;;;;;6.81;55.56;101693.94;5008404;27;107097;-49
2022/01/27 08:05:11;;;;;;;;;;;;;;;6.77;56.28;101692.75;5005858;27;102608;-49
2022/01/27 08:07:37;;;;;;;;;;;;;;;6.74;56.47;101698.59;5008823;27;102186;-50
2022/01/27 08:10:03;;;;;;;;;;;;;;;6.72;56.81;101706.94;5007326;28;103116;-49
2022/01/27 08:12:29;;;;;;;;;;;;;;;6.69;56.05;101703.84;5008615;27;104101;-50
2022/01/27 08:14:55;;;;;;;;;;;;;;;6.63;55.37;101700.13;5010713;27;102280;-49
2022/01/27 08:17:22;;;;;;;;;;;;;;;6.56;55.23;101701.25;5005215;28;102937;-49
2022/01/27 08:19:48;;;;;;;;;;;;;;;6.50;56.14;101708.38;5006056;28;102416;-49
2022/01/27 08:22:14;;;;;;;;;;;;;;;6.47;55.64;101703.41;5000071;28;102695;-49
2022/01/27 08:24:41;;;;;;;;;;;;;;;6.44;56.24;101704.66;5003602;28;102402;-49
2022/01/27 08:27:11;;;;;;;;;;;;;;;6.39;55.41;101704.50;4999861;28;102398;-49
2022/01/27 08:29:42;;;;;;;;;;;;;;;6.38;57.12;101700.16;5000469;28;102737;-49
2022/01/27 08:32:15;;;;;;;;;;;;;;;6.43;58.18;101713.00;5010647;28;103045;-48
2022/01/27 08:34:44;;;;;;;;;;;;;;;6.45;58.03;101714.44;5005439;28;104647;-51
2022/01/27 08:37:12;;;;;;;;;;;;;;;6.48;58.62;101729.41;5005717;27;104115;-49
2022/01/27 08:39:38;;;;;;;;;;;;;;;6.49;58.89;101722.94;5011499;28;102294;-49
2022/01/27 08:42:06;;;;;;;;;;;;;;;6.50;58.85;101725.44;5007002;28;104112;-49
2022/01/27 08:44:32;;;;;;;;;;;;;;;6.52;58.89;101732.50;5011347;28;102658;-52
2022/01/27 08:46:58;;;;;;;;;;;;;;;6.54;59.45;101725.00;5004875;28;102585;-49
2022/01/27 08:49:26;;;;;;;;;;;;;;;6.57;59.77;101724.56;5005003;28;104180;-49
2022/01/27 08:51:54;;;;;;;;;;;;;;;6.59;59.51;101725.16;5010612;28;103849;-49
2022/01/27 08:54:20;;;;;;;;;;;;;;;6.59;59.54;101714.34;5009267;27;102981;-49
2022/01/27 08:56:46;;;;;;;;;;;;;;;6.62;59.77;101716.59;5012335;28;102535;-49
2022/01/27 08:59:13;;;;;;;;;;;;;;;6.63;60.68;101712.84;5001483;28;102773;-51
2022/01/27 09:01:40;;;;;;;;;;;;;;;6.65;60.06;101718.88;5003029;28;103837;-50
2022/01/27 09:04:07;;;;;;;;;;;;;;;6.67;59.96;101720.31;5018299;27;102469;-50
2022/01/27 09:06:33;;;;;;;;;;;;;;;6.70;60.28;101700.09;5009034;27;103896;-49
2022/01/27 09:09:00;;;;;;;;;;;;;;;6.71;60.61;101701.78;5015709;28;102227;-49
2022/01/27 09:11:29;;;;;;;;;;;;;;;6.73;61.03;101702.34;5016222;27;104088;-50
2022/01/27 09:13:55;;;;;;;;;;;;;;;6.75;60.92;101689.44;5016453;27;102430;-49
2022/01/27 09:16:23;;;;;;;;;;;;;;;6.78;60.27;101689.00;5009757;27;102820;-48
2022/01/27 09:18:49;;;;;;;;;;;;;;;6.81;61.37;101682.31;5008402;28;102377;-50
2022/01/27 09:21:22;;;;;;;;;;;;;;;6.82;60.34;101684.81;5014256;27;103860;-49
2022/01/27 09:23:48;;;;;;;;;;;;;;;6.83;60.41;101683.75;5011399;27;102107;-49
2022/01/27 09:26:52;;;;;;;;;;;;;;;6.86;61.00;101686.00;5013611;28;102335;-50
2022/01/27 09:29:08;;;;;;;;;;;;;;;6.89;60.98;101685.56;5016894;27;102556;-49
2022/01/27 09:31:35;;;;;;;;;;;;;;;6.90;61.30;101684.50;5013514;27;104233;-49
2022/01/27 09:34:01;;;;;;;;;;;;;;;6.93;60.84;101684.06;5014470;27;102073;-49
2022/01/27 09:36:27;;;;;;;;;;;;;;;6.94;60.46;101685.72;5014910;27;102443;-49
2022/01/27 09:38:53;;;;;;;;;;;;;;;6.96;60.79;101670.09;5016420;28;102328;-50
2022/01/27 09:41:22;;;;;;;;;;;;;;;6.98;60.90;101677.97;5009898;27;103878;-49
2022/01/27 09:43:48;;;;;;;;;;;;;;;6.99;61.75;101677.75;5011029;28;102232;-49
2022/01/27 09:46:18;;;;;;;;;;;;;;;7.01;61.04;101671.31;5008664;28;102448;-49
2022/01/27 09:48:47;;;;;;;;;;;;;;;7.03;60.79;101659.19;5011402;28;102266;-49
2022/01/27 09:53:46;;;;;;;;;;;;;;;7.07;61.57;101664.97;5001798;28;103893;-50
2022/01/27 09:56:12;;;;;;;;;;;;;;;7.07;61.17;101656.84;5004446;27;102134;-49
2022/01/27 09:58:40;;;;;;;;;;;;;;;7.10;60.84;101648.28;5012416;27;102251;-49
2022/01/27 10:01:07;;;;;;;;;;;;;;;7.11;60.81;101647.25;5006615;28;103736;-49
2022/01/27 10:03:50;;;;;;;;;;;;;;;7.12;61.06;101657.84;5003451;27;102140;-49
2022/01/27 10:06:18;;;;;;;;;;;;;;;7.13;60.83;101648.66;5007196;27;102679;-49
2022/01/27 10:08:45;;;;;;;;;;;;;;;7.16;61.73;101652.81;5011013;27;102486;-49
2022/01/27 10:11:15;;;;;;;;;;;;;;;7.17;61.61;101651.75;5010533;28;103969;-49
2022/01/27 10:13:44;;;;;;;;;;;;;;;7.17;61.61;101643.63;5014113;27;102412;-49
2022/01/27 10:16:25;;;;;;;;;;;;;;;7.19;61.45;101647.75;5008531;28;102324;-50
2022/01/27 10:19:02;;;;;;;;;;;;;;;7.20;61.97;101638.56;5010051;27;102288;-48
2022/01/27 10:21:30;;;;;;;;;;;;;;;7.22;62.06;101641.91;5010908;28;104025;-49
2022/01/27 10:24:12;;;;;;;;;;;;;;;7.25;61.89;101635.22;5014718;28;102243;-53
2022/01/27 10:26:43;;;;;;;;;;;;;;;7.25;61.64;101629.81;5003022;28;102868;-49
2022/01/27 10:29:28;;;;;;;;;;;;;;;7.27;61.49;101637.69;5006077;28;102271;-49
2022/01/27 10:32:00;;;;;;;;;;;;;;;7.28;61.54;101633.91;5013183;28;103608;-48
2022/01/27 10:34:26;;;;;;;;;;;;;;;7.29;62.04;101635.59;5015736;27;102335;-49
2022/01/27 10:36:55;;;;;;;;;;;;;;;7.31;61.55;101628.03;5016136;28;102187;-49
2022/01/27 10:39:21;;;;;;;;;;;;;;;7.31;61.55;101625.34;5015333;27;102989;-49
2022/01/27 10:41:54;;;;;;;;;;;;;;;7.31;62.49;101618.03;5013310;27;103869;-50
2022/01/27 10:44:23;;;;;;;;;;;;;;;7.31;61.79;101612.63;5011480;27;102764;-49
2022/01/27 10:47:00;;;;;;;;;;;;;;;7.33;61.63;101613.22;5005904;28;103281;-49
2022/01/27 10:49:28;;;;;;;;;;;;;;;7.34;61.27;101612.19;5010857;28;104038;-49
2022/01/27 10:51:55;;;;;;;;;;;;;;;7.35;61.24;101613.81;5011532;28;103860;-49
2022/01/27 10:54:36;;;;;;;;;;;;;;;7.36;62.40;101612.78;5011145;28;102437;-50
2022/01/27 10:57:03;;;;;;;;;;;;;;;7.37;62.09;101608.19;5010887;28;102103;-49
2022/01/27 10:59:33;;;;;;;;;;;;;;;7.37;61.96;101595.47;5014411;28;102243;-49
2022/01/27 11:02:03;;;;;;;;;;;;;;;7.38;61.80;101602.53;5006107;27;104306;-50
2022/01/27 11:04:32;;;;;;;;;;;;;;;7.39;61.82;101601.50;5018848;28;102229;-49
2022/01/27 11:07:00;;;;;;;;;;;;;;;7.40;61.78;101605.03;5025551;27;102621;-49
2022/01/27 11:09:27;;;;;;;;;;;;;;;7.39;62.68;101604.22;5016394;28;102516;-50
2022/01/27 11:11:55;;;;;;;;;;;;;;;7.41;62.38;101602.09;5015611;28;104080;-49
2022/01/27 11:14:24;;;;;;;;;;;;;;;7.42;62.27;101603.72;5013013;27;102603;-49
2022/01/27 11:16:56;;;;;;;;;;;;;;;7.42;61.94;101592.88;5012302;28;102522;-49
2022/01/27 11:24:43;;;;;;;;;;;;;;;7.44;62.42;101585.38;5002981;28;102386;-50
2022/01/27 11:27:13;;;;;;;;;;;;;;;7.45;62.25;101581.59;5008387;28;102435;-49
2022/01/27 11:29:42;;;;;;;;;;;;;;;7.46;62.17;101579.72;5011765;27;102451;-49
2022/01/27 11:32:16;;;;;;;;;;;;;;;7.47;62.75;101578.69;5005972;28;104127;-49
2022/01/27 11:34:44;;;;;;;;;;;;;;;7.47;62.72;101568.69;5004333;28;102115;-49
2022/01/27 11:37:10;;;;;;;;;;;;;;;7.47;62.58;101562.44;5017129;28;102203;-49
2022/01/27 11:39:47;;;;;;;;;;;;;;;7.48;62.20;101564.06;5014513;28;102848;-49
2022/01/27 11:42:13;;;;;;;;;;;;;;;7.49;61.99;101559.47;5001475;28;107691;-50
2022/01/27 11:44:43;;;;;;;;;;;;;;;7.49;62.12;101551.34;5001938;27;102971;-49
2022/01/27 11:47:18;;;;;;;;;;;;;;;7.49;62.87;101557.59;5013823;28;102417;-49
2022/01/27 11:50:23;;;;;;;;;;;;;;;7.50;62.37;101561.13;5000617;28;102199;-49
2022/01/27 11:52:47;;;;;;;;;;;;;;;7.50;62.04;101551.16;5006589;28;106644;-49
2022/01/27 11:55:32;;;;;;;;;;;;;;;7.51;61.91;101558.22;5004856;28;104076;-50
2022/01/27 11:57:59;;;;;;;;;;;;;;;7.52;62.30;101543.59;5008820;28;104565;-49
2022/01/27 12:00:26;;;;;;;;;;;;;;;7.53;62.33;101544.41;5010042;28;102209;-50
2022/01/27 12:03:12;;;;;;;;;;;;;;;7.54;62.60;101540.69;5010165;28;103920;-49
2022/01/27 12:05:39;;;;;;;;;;;;;;;7.54;61.62;101544.22;5006083;28;102751;-51
2022/01/27 12:08:23;;;;;;;;;;;;;;;7.55;61.85;101542.31;5013326;28;104723;-49
2022/01/27 12:10:56;;;;;;;;;;;;;;;7.56;62.54;101549.38;5014074;27;102876;-49
2022/01/27 12:13:45;;;;;;;;;;;;;;;7.55;62.66;101545.84;5007828;28;104261;-50
2022/01/27 12:16:25;;;;;;;;;;;;;;;7.56;61.57;101538.53;5015468;28;104229;-51
2022/01/27 12:19:00;;;;;;;;;;;;;;;7.58;62.55;101541.88;5005037;28;103134;-49
2022/01/27 12:21:30;;;;;;;;;;;;;;;7.57;62.79;101532.88;5000507;28;104478;-50
2022/01/27 12:26:45;;;;;;;;;;;;;;;7.58;62.31;101526.44;5007671;27;102308;-49
2022/01/27 12:29:11;;;;;;;;;;;;;;;7.60;62.51;101534.31;5004330;28;102374;-49
2022/01/27 12:31:38;;;;;;;;;;;;;;;7.59;62.26;101533.50;5009983;28;102810;-50
2022/01/27 12:34:06;;;;;;;;;;;;;;;7.59;62.54;101532.66;5010206;27;103900;-49
2022/01/27 12:36:32;;;;;;;;;;;;;;;7.60;62.24;101524.31;5007098;28;102764;-49
2022/01/27 12:38:58;;;;;;;;;;;;;;;7.61;61.93;101525.97;5013836;27;102546;-49
2022/01/27 12:41:24;;;;;;;;;;;;;;;7.61;62.66;101530.53;5020817;28;102419;-50
2022/01/27 12:43:51;;;;;;;;;;;;;;;7.62;62.21;101526.78;5010301;28;103940;-49
2022/01/27 12:46:17;;;;;;;;;;;;;;;7.61;62.57;101528.69;5012182;27;104757;-48
2022/01/27 12:48:47;;;;;;;;;;;;;;;7.63;63.11;101518.41;5016325;28;103746;-48
2022/01/27 12:51:14;;;;;;;;;;;;;;;7.63;61.67;101523.03;5009083;27;103861;-48
2022/01/27 12:53:41;;;;;;;;;;;;;;;7.63;61.95;101523.03;5012099;27;103732;-49
2022/01/27 12:56:08;;;;;;;;;;;;;;;7.64;61.93;101524.66;5008049;27;102109;-48
2022/01/27 12:58:35;;;;;;;;;;;;;;;7.63;62.00;101517.59;5008178;28;102150;-48
2022/01/27 13:01:02;;;;;;;;;;;;;;;7.64;62.46;101524.66;5018692;27;102191;-48
2022/01/27 13:03:28;;;;;;;;;;;;;;;7.64;62.51;101524.66;5010414;27;103909;-49
2022/01/27 13:05:55;;;;;;;;;;;;;;;7.65;62.03;101519.03;5009791;27;102247;-49
2022/01/27 13:08:27;;;;;;;;;;;;;;;7.64;62.11;101508.41;5011909;27;103242;-49
2022/01/27 13:10:55;;;;;;;;;;;;;;;7.65;61.82;101510.09;5009767;28;102233;-49
2022/01/27 13:13:26;;;;;;;;;;;;;;;7.65;62.43;101504.66;5012083;28;103943;-48
2022/01/27 13:15:55;;;;;;;;;;;;;;;7.64;62.88;101503.81;5009032;27;102362;-49
2022/01/27 13:18:27;;;;;;;;;;;;;;;7.66;62.14;101512.53;5007060;28;102648;-50
2022/01/27 13:20:56;;;;;;;;;;;;;;;7.65;62.48;101501.94;5013208;27;104182;-50
2022/01/27 13:23:36;;;;;;;;;;;;;;;7.65;62.59;101500.06;5010050;27;104033;-49
2022/01/27 13:26:05;;;;;;;;;;;;;;;7.66;62.74;101495.47;5012499;28;102420;-49
2022/01/27 13:28:34;;;;;;;;;;;;;;;7.66;62.02;101500.88;5009462;28;102212;-49
2022/01/27 13:31:01;;;;;;;;;;;;;;;7.66;62.85;101492.75;5011779;27;102276;-49
2022/01/27 13:33:28;;;;;;;;;;;;;;;7.66;62.30;101484.63;5011615;28;103758;-49